Time;durP1;ratioP1;P1;durP2;ratioP2;P2;SDS_P1;SDS_P2;PMS_P1;PMS_P2;Temp;Humidity;BMP_temperature;BMP_pressure;BME280_temperature;BME280_humidity;BME280_pressure;Samples;Min_cycle;Max_cycle;Signal;HPM_P1;HPM_P2
2023/10/01 00:00:21;;;;;;;;;;;19.20;86.90;;;;;;4118478;28;19932;-43
2023/10/01 00:03:04;;;;;;;;;;;19.20;86.90;;;;;;4109586;28;19936;-43
2023/10/01 00:05:45;;;;;;;;;;;19.20;87.80;;;;;;4105063;28;19933;-44
2023/10/01 00:08:26;;;;;;;;;;;19.20;87.00;;;;;;4105868;28;19933;-44
2023/10/01 00:11:14;;;;;;;;;;;19.10;86.90;;;;;;4086688;28;19932;-56
2023/10/01 00:13:57;;;;;;;;;;;19.20;87.00;;;;;;4118682;28;20393;-56
2023/10/01 00:16:46;;;;;;;;;;;19.10;87.40;;;;;;4111430;28;20405;-57
2023/10/01 00:19:27;;;;;;;;;;;19.20;87.10;;;;;;4104215;28;19937;-57
2023/10/01 00:22:09;;;;;;;;;;;19.20;87.10;;;;;;4100830;28;19933;-57
2023/10/01 00:24:50;;;;;;;;;;;19.20;87.20;;;;;;4096980;28;19933;-58
2023/10/01 00:27:32;;;;;;;;;;;19.20;87.20;;;;;;4107179;28;19933;-59
2023/10/01 00:30:14;;;;;;;;;;;19.10;87.20;;;;;;4104926;28;19937;-57
2023/10/01 00:32:56;;;;;;;;;;;19.10;87.20;;;;;;4097588;28;19937;-57
2023/10/01 00:35:40;;;;;;;;;;;19.10;87.20;;;;;;4107893;28;19977;-57
2023/10/01 00:38:26;;;;;;;;;;;19.10;88.10;;;;;;4103583;28;19949;-58
2023/10/01 00:41:08;;;;;;;;;;;19.10;87.30;;;;;;4103164;28;19964;-57
2023/10/01 00:43:51;;;;;;;;;;;19.10;87.30;;;;;;4088281;28;20058;-57
2023/10/01 00:46:33;;;;;;;;;;;19.10;87.40;;;;;;4101973;28;20402;-58
2023/10/01 00:49:17;;;;;;;;;;;19.10;87.40;;;;;;4095811;28;19936;-50
2023/10/01 00:52:10;;;;;;;;;;;19.10;87.40;;;;;;4098417;28;20494;-44
2023/10/01 00:54:54;;;;;;;;;;;19.10;87.60;;;;;;4066254;28;20365;-57
2023/10/01 00:57:37;;;;;;;;;;;19.10;88.60;;;;;;4116290;28;20312;-57
2023/10/01 01:00:20;;;;;;;;;;;19.10;87.80;;;;;;4112731;28;20017;-57
2023/10/01 01:03:06;;;;;;;;;;;19.10;87.80;;;;;;4106300;28;20298;-57
2023/10/01 01:06:12;;;;;;;;;;;19.10;87.80;;;;;;4118341;28;20060;-60
2023/10/01 01:09:00;;;;;;;;;;;19.10;87.80;;;;;;4110234;28;19936;-43
2023/10/01 01:11:42;;;;;;;;;;;19.10;87.80;;;;;;4085047;28;20652;-46
2023/10/01 01:14:27;;;;;;;;;;;19.10;87.80;;;;;;4115661;28;20051;-44
2023/10/01 01:17:21;;;;;;;;;;;19.10;87.80;;;;;;4115961;28;19971;-44
2023/10/01 01:20:09;;;;;;;;;;;19.10;87.80;;;;;;4088511;28;19941;-58
2023/10/01 01:22:52;;;;;;;;;;;19.10;87.80;;;;;;4100140;28;19936;-58
2023/10/01 01:25:36;;;;;;;;;;;19.10;87.80;;;;;;4108761;28;19933;-57
2023/10/01 01:28:24;;;;;;;;;;;19.10;87.80;;;;;;4036770;29;20379;-57
2023/10/01 01:31:08;;;;;;;;;;;19.10;87.90;;;;;;4116450;28;19967;-57
2023/10/01 01:33:56;;;;;;;;;;;19.10;88.70;;;;;;4094298;28;19956;-57
2023/10/01 01:36:38;;;;;;;;;;;19.10;88.00;;;;;;4080923;28;20370;-58
2023/10/01 01:39:27;;;;;;;;;;;19.10;88.00;;;;;;4100915;28;20390;-55
2023/10/01 01:42:10;;;;;;;;;;;19.10;88.10;;;;;;4098156;28;19949;-58
2023/10/01 01:45:15;;;;;;;;;;;19.10;88.10;;;;;;4101135;28;19936;-58
2023/10/01 01:47:57;;;;;;;;;;;19.10;88.10;;;;;;4099389;28;19934;-59
2023/10/01 01:50:41;;;;;;;;;;;19.10;88.10;;;;;;4090246;28;19941;-58
2023/10/01 01:53:26;;;;;;;;;;;19.10;88.10;;;;;;4100402;28;20303;-58
2023/10/01 01:56:11;;;;;;;;;;;19.10;88.20;;;;;;4102877;28;19932;-58
2023/10/01 01:58:55;;;;;;;;;;;19.10;88.10;;;;;;4095512;28;19940;-58
2023/10/01 02:01:36;;;;;;;;;;;19.00;88.10;;;;;;4102359;28;19933;-58
2023/10/01 02:04:17;;;;;;;;;;;19.00;88.20;;;;;;4084479;28;19934;-44
2023/10/01 02:06:59;;;;;;;;;;;19.00;88.20;;;;;;4103802;28;20030;-45
2023/10/01 02:09:41;;;;;;;;;;;19.00;88.20;;;;;;4088735;28;19934;-44
2023/10/01 02:12:30;;;;;;;;;;;19.00;88.20;;;;;;4098543;28;20326;-44
2023/10/01 02:15:11;;;;;;;;;;;19.00;88.20;;;;;;4100761;28;20041;-43
2023/10/01 02:17:56;;;;;;;;;;;19.00;88.20;;;;;;4117091;28;19933;-44
2023/10/01 02:20:41;;;;;;;;;;;19.00;88.20;;;;;;4126530;28;19933;-43
2023/10/01 02:23:32;;;;;;;;;;;19.00;88.20;;;;;;4114680;28;19960;-44
2023/10/01 02:26:15;;;;;;;;;;;19.00;89.10;;;;;;4108758;28;19979;-57
2023/10/01 02:29:02;;;;;;;;;;;19.00;88.20;;;;;;4074383;28;20390;-57
2023/10/01 02:31:48;;;;;;;;;;;19.00;88.30;;;;;;4089392;28;20393;-57
2023/10/01 02:34:31;;;;;;;;;;;19.00;89.20;;;;;;4099276;28;20002;-56
2023/10/01 02:37:25;;;;;;;;;;;19.00;88.30;;;;;;4099985;28;20019;-58
2023/10/01 02:40:12;;;;;;;;;;;19.00;88.30;;;;;;4117957;28;19987;-57
2023/10/01 02:42:56;;;;;;;;;;;19.00;88.40;;;;;;4117699;28;19937;-57
2023/10/01 02:45:41;;;;;;;;;;;19.00;88.40;;;;;;4105115;28;20759;-57
2023/10/01 02:48:26;;;;;;;;;;;19.00;88.50;;;;;;4079657;28;19933;-57
2023/10/01 02:51:32;;;;;;;;;;;19.00;89.30;;;;;;4090035;28;19952;-56
2023/10/01 02:54:14;;;;;;;;;;;19.00;89.30;;;;;;4082404;28;21668;-58
2023/10/01 02:57:12;;;;;;;;;;;19.00;88.50;;;;;;4085778;28;20290;-55
2023/10/01 03:02:57;;;;;;;;;;;19.00;88.70;;;;;;4108916;28;19936;-44
2023/10/01 03:05:42;;;;;;;;;;;19.00;88.50;;;;;;4119295;28;19936;-44
2023/10/01 03:08:41;;;;;;;;;;;18.90;88.50;;;;;;4116459;28;20449;-44
2023/10/01 03:11:22;;;;;;;;;;;19.00;88.60;;;;;;4108013;28;19933;-44
2023/10/01 03:14:10;;;;;;;;;;;18.90;88.60;;;;;;4110506;28;19933;-45
2023/10/01 03:16:53;;;;;;;;;;;18.90;88.60;;;;;;4117084;28;19960;-44
2023/10/01 03:19:40;;;;;;;;;;;18.90;88.60;;;;;;4066086;28;19933;-44
2023/10/01 03:22:23;;;;;;;;;;;18.90;88.60;;;;;;4100508;28;19976;-43
2023/10/01 03:25:28;;;;;;;;;;;18.90;88.60;;;;;;4096210;28;19936;-44
2023/10/01 03:28:25;;;;;;;;;;;18.90;88.70;;;;;;4103182;28;19949;-44
2023/10/01 03:31:12;;;;;;;;;;;18.90;88.70;;;;;;4103475;28;20386;-45
2023/10/01 03:33:59;;;;;;;;;;;18.90;88.70;;;;;;4091639;28;19937;-44
2023/10/01 03:36:42;;;;;;;;;;;18.90;88.70;;;;;;4120272;28;19933;-44
2023/10/01 03:39:26;;;;;;;;;;;18.90;88.70;;;;;;4104752;28;19999;-57
2023/10/01 03:42:17;;;;;;;;;;;18.90;88.70;;;;;;4100586;28;19984;-44
2023/10/01 03:45:18;;;;;;;;;;;18.90;88.70;;;;;;4095185;28;19948;-59
2023/10/01 03:48:06;;;;;;;;;;;18.90;88.70;;;;;;4102834;28;20393;-59
2023/10/01 03:50:47;;;;;;;;;;;18.90;88.70;;;;;;4104117;28;19933;-56
2023/10/01 03:53:32;;;;;;;;;;;18.90;88.70;;;;;;4118929;28;20073;-57
2023/10/01 03:56:30;;;;;;;;;;;18.90;88.70;;;;;;4119813;28;19964;-58
2023/10/01 03:59:16;;;;;;;;;;;18.90;88.70;;;;;;4118479;28;19932;-42
2023/10/01 04:02:01;;;;;;;;;;;18.90;88.70;;;;;;4108591;28;19936;-44
2023/10/01 04:07:42;;;;;;;;;;;18.90;89.70;;;;;;4112198;28;19933;-43
2023/10/01 04:10:30;;;;;;;;;;;18.90;88.80;;;;;;4096969;28;20640;-43
2023/10/01 04:13:20;;;;;;;;;;;18.90;88.80;;;;;;4107038;28;19933;-43
2023/10/01 04:16:08;;;;;;;;;;;18.90;88.70;;;;;;4085762;28;19976;-43
2023/10/01 04:18:50;;;;;;;;;;;18.80;88.70;;;;;;4094015;28;19968;-44
2023/10/01 04:21:34;;;;;;;;;;;18.80;88.70;;;;;;4103416;28;20018;-59
2023/10/01 04:24:16;;;;;;;;;;;18.90;88.70;;;;;;4115758;28;20065;-58
2023/10/01 04:27:18;;;;;;;;;;;18.90;88.70;;;;;;4117447;28;20049;-58
2023/10/01 04:30:00;;;;;;;;;;;18.90;88.70;;;;;;4116162;28;19933;-58
2023/10/01 04:32:42;;;;;;;;;;;18.90;88.70;;;;;;4110668;28;20404;-59
2023/10/01 04:35:24;;;;;;;;;;;18.80;88.60;;;;;;4105183;28;19937;-59
2023/10/01 04:38:05;;;;;;;;;;;18.80;88.60;;;;;;4119224;28;19936;-59
2023/10/01 04:40:48;;;;;;;;;;;18.80;88.60;;;;;;4119481;28;19941;-59
2023/10/01 04:43:34;;;;;;;;;;;18.80;88.60;;;;;;4116380;28;19933;-59
2023/10/01 04:46:21;;;;;;;;;;;18.80;88.60;;;;;;4105517;28;19932;-57
2023/10/01 04:49:08;;;;;;;;;;;18.80;88.60;;;;;;4117847;28;20393;-59
2023/10/01 04:52:10;;;;;;;;;;;18.80;88.70;;;;;;4120081;28;19937;-58
2023/10/01 04:54:51;;;;;;;;;;;18.80;88.70;;;;;;4120956;28;20437;-58
2023/10/01 04:57:36;;;;;;;;;;;18.80;88.70;;;;;;4109080;28;19952;-57
2023/10/01 05:00:22;;;;;;;;;;;18.80;89.50;;;;;;4105964;28;20036;-57
2023/10/01 05:03:06;;;;;;;;;;;18.80;88.70;;;;;;4111149;28;19933;-57
2023/10/01 05:05:48;;;;;;;;;;;18.80;88.80;;;;;;4119223;28;19937;-57
2023/10/01 05:08:38;;;;;;;;;;;18.80;88.70;;;;;;4111486;28;19936;-58
2023/10/01 05:11:21;;;;;;;;;;;18.80;88.70;;;;;;4115618;28;19937;-58
2023/10/01 05:14:04;;;;;;;;;;;18.80;88.70;;;;;;4083925;28;19937;-44
2023/10/01 05:16:47;;;;;;;;;;;18.80;88.70;;;;;;4122334;28;19991;-44
2023/10/01 05:19:30;;;;;;;;;;;18.80;88.70;;;;;;4112090;28;20477;-44
2023/10/01 05:22:12;;;;;;;;;;;18.80;88.70;;;;;;4108047;28;19937;-43
2023/10/01 05:24:54;;;;;;;;;;;18.80;88.70;;;;;;4118162;28;19956;-44
2023/10/01 05:27:40;;;;;;;;;;;18.80;88.90;;;;;;4118964;28;20087;-44
2023/10/01 05:30:35;;;;;;;;;;;18.80;89.00;;;;;;4117778;28;19933;-45
2023/10/01 05:33:17;;;;;;;;;;;18.80;89.00;;;;;;4113823;28;20405;-45
2023/10/01 05:36:04;;;;;;;;;;;18.90;89.90;;;;;;4093108;28;19972;-43
2023/10/01 05:38:47;;;;;;;;;;;18.80;88.90;;;;;;4120062;28;20052;-44
2023/10/01 05:41:32;;;;;;;;;;;18.90;88.90;;;;;;4100572;28;20050;-44
2023/10/01 05:44:15;;;;;;;;;;;18.80;88.90;;;;;;4090781;28;20000;-44
2023/10/01 05:46:58;;;;;;;;;;;18.90;88.90;;;;;;4074787;28;19936;-56
2023/10/01 05:49:49;;;;;;;;;;;18.80;89.80;;;;;;4088717;28;19937;-56
2023/10/01 05:52:31;;;;;;;;;;;18.80;89.80;;;;;;4092582;28;19950;-57
2023/10/01 05:55:15;;;;;;;;;;;18.80;88.90;;;;;;4091779;28;20484;-56
2023/10/01 05:58:12;;;;;;;;;;;18.80;89.00;;;;;;4100249;28;19942;-56
2023/10/01 06:00:57;;;;;;;;;;;18.80;88.90;;;;;;4102279;28;19933;-56
2023/10/01 06:03:40;;;;;;;;;;;18.80;89.00;;;;;;4097468;28;19953;-56
2023/10/01 06:06:25;;;;;;;;;;;18.80;89.00;;;;;;4107349;28;20152;-52
2023/10/01 06:09:14;;;;;;;;;;;18.80;89.00;;;;;;4120768;28;19945;-55
2023/10/01 06:12:10;;;;;;;;;;;18.80;89.00;;;;;;4115873;28;19972;-53
2023/10/01 06:15:03;;;;;;;;;;;18.80;89.20;;;;;;4107244;28;20385;-54
2023/10/01 06:17:44;;;;;;;;;;;18.80;89.30;;;;;;4099570;28;20057;-56
2023/10/01 06:20:26;;;;;;;;;;;18.80;89.30;;;;;;4100962;28;19972;-43
2023/10/01 06:23:09;;;;;;;;;;;18.80;89.40;;;;;;4112048;28;19948;-43
2023/10/01 06:25:53;;;;;;;;;;;18.80;89.40;;;;;;4107712;28;19952;-43
2023/10/01 06:28:35;;;;;;;;;;;18.80;90.10;;;;;;4120202;28;19936;-44
2023/10/01 06:31:20;;;;;;;;;;;18.80;89.40;;;;;;4111276;28;20036;-44
2023/10/01 06:34:04;;;;;;;;;;;18.80;90.10;;;;;;4118326;28;19949;-43
2023/10/01 06:36:45;;;;;;;;;;;18.80;89.40;;;;;;4105297;28;19933;-43
2023/10/01 06:39:30;;;;;;;;;;;18.80;89.40;;;;;;4113296;28;19976;-53
2023/10/01 06:42:23;;;;;;;;;;;18.80;89.40;;;;;;4119506;28;19937;-55
2023/10/01 06:45:06;;;;;;;;;;;18.70;89.40;;;;;;4102478;28;19932;-54
2023/10/01 06:47:51;;;;;;;;;;;18.70;89.40;;;;;;4119091;28;20421;-56
2023/10/01 06:50:35;;;;;;;;;;;18.70;89.40;;;;;;4119136;28;20397;-55
2023/10/01 06:53:17;;;;;;;;;;;18.70;89.40;;;;;;4072272;28;19933;-56
2023/10/01 06:56:01;;;;;;;;;;;18.70;89.40;;;;;;4114800;28;19933;-43
2023/10/01 06:59:09;;;;;;;;;;;18.70;89.40;;;;;;4117783;28;20016;-44
2023/10/01 07:01:49;;;;;;;;;;;18.70;89.40;;;;;;4115482;28;20401;-43
2023/10/01 07:04:32;;;;;;;;;;;18.70;89.50;;;;;;4103921;28;19933;-43
2023/10/01 07:07:21;;;;;;;;;;;18.70;89.40;;;;;;4104943;28;20016;-43
2023/10/01 07:10:10;;;;;;;;;;;18.70;89.50;;;;;;4120031;28;19953;-43
2023/10/01 07:13:04;;;;;;;;;;;18.70;89.50;;;;;;4100028;28;20461;-55
2023/10/01 07:15:48;;;;;;;;;;;18.70;89.60;;;;;;4108966;28;19933;-55
2023/10/01 07:18:37;;;;;;;;;;;18.70;89.50;;;;;;4096797;28;20058;-51
2023/10/01 07:21:19;;;;;;;;;;;18.70;89.60;;;;;;4101434;28;20060;-54
2023/10/01 07:24:04;;;;;;;;;;;18.70;89.50;;;;;;4105644;28;20101;-55
2023/10/01 07:26:48;;;;;;;;;;;18.70;89.50;;;;;;4109292;28;19937;-55
2023/10/01 07:29:33;;;;;;;;;;;18.70;89.50;;;;;;4118412;28;19936;-55
2023/10/01 07:32:14;;;;;;;;;;;18.70;89.50;;;;;;4117564;28;19936;-55
2023/10/01 07:34:59;;;;;;;;;;;18.70;90.10;;;;;;4096801;28;20461;-54
2023/10/01 07:37:41;;;;;;;;;;;18.70;89.50;;;;;;4047552;28;19933;-44
2023/10/01 07:40:23;;;;;;;;;;;18.70;89.50;;;;;;4074986;28;19937;-43
2023/10/01 07:43:05;;;;;;;;;;;18.70;89.50;;;;;;4104423;28;20121;-43
2023/10/01 07:45:55;;;;;;;;;;;18.70;89.60;;;;;;4097283;28;20454;-43
2023/10/01 07:48:46;;;;;;;;;;;18.70;89.60;;;;;;4102782;28;20672;-43
2023/10/01 07:51:35;;;;;;;;;;;18.70;89.60;;;;;;4112990;28;19937;-55
2023/10/01 07:54:22;;;;;;;;;;;18.70;89.60;;;;;;4095785;28;20406;-55
2023/10/01 07:57:08;;;;;;;;;;;18.70;89.60;;;;;;4108856;28;19932;-54
2023/10/01 07:59:53;;;;;;;;;;;18.70;89.60;;;;;;4046937;28;19932;-59
2023/10/01 08:03:27;;;;;;;;;;;18.70;89.60;;;;;;4061489;28;19937;-55
2023/10/01 08:05:38;;;;;;;;;;;18.70;89.70;;;;;;4090561;28;19954;-57
2023/10/01 08:08:35;;;;;;;;;;;18.70;90.00;;;;;;4097762;28;20180;-56
2023/10/01 08:14:26;;;;;;;;;;;18.90;90.40;;;;;;4083431;28;19956;-53
2023/10/01 08:17:20;;;;;;;;;;;18.90;89.90;;;;;;4089543;28;19933;-41
2023/10/01 08:20:17;;;;;;;;;;;18.90;89.70;;;;;;4092046;28;20020;-41
2023/10/01 08:26:39;;;;;;;;;;;18.90;91.10;;;;;;4099285;28;22822;-46
2023/10/01 08:29:08;;;;;;;;;;;18.90;91.70;;;;;;4108765;28;20314;-41
2023/10/01 08:32:09;;;;;;;;;;;18.90;91.70;;;;;;4078325;28;19956;-41
2023/10/01 08:35:01;;;;;;;;;;;18.90;91.80;;;;;;4089263;28;20037;-41
2023/10/01 08:37:49;;;;;;;;;;;18.90;91.20;;;;;;4095720;28;20019;-40
2023/10/01 08:40:35;;;;;;;;;;;18.90;91.00;;;;;;4105999;28;19976;-41
2023/10/01 08:43:17;;;;;;;;;;;18.90;90.90;;;;;;4082455;28;20070;-53
2023/10/01 08:46:00;;;;;;;;;;;18.90;90.80;;;;;;4115112;28;19933;-53
2023/10/01 08:48:47;;;;;;;;;;;18.90;90.70;;;;;;4092579;28;20029;-50
2023/10/01 08:51:37;;;;;;;;;;;18.90;91.10;;;;;;4108744;28;19932;-53
2023/10/01 08:54:25;;;;;;;;;;;18.80;90.60;;;;;;4116329;28;19941;-52
2023/10/01 08:57:17;;;;;;;;;;;18.80;90.60;;;;;;4102889;28;19935;-51
2023/10/01 09:00:00;;;;;;;;;;;18.80;90.60;;;;;;4119487;28;19975;-53
2023/10/01 09:02:42;;;;;;;;;;;18.80;90.50;;;;;;4109719;28;20306;-41
2023/10/01 09:05:27;;;;;;;;;;;18.80;90.50;;;;;;4105593;28;20283;-40
2023/10/01 09:08:26;;;;;;;;;;;18.80;90.50;;;;;;4097684;28;19933;-45
2023/10/01 09:11:14;;;;;;;;;;;18.80;90.50;;;;;;4086615;28;19937;-40
2023/10/01 09:14:14;;;;;;;;;;;18.80;90.50;;;;;;4061991;28;20413;-41
2023/10/01 09:16:58;;;;;;;;;;;18.80;90.40;;;;;;4089580;28;21207;-40
2023/10/01 09:19:50;;;;;;;;;;;18.80;90.40;;;;;;4112486;28;19933;-41
2023/10/01 09:22:42;;;;;;;;;;;18.80;90.40;;;;;;4116793;28;20381;-41
2023/10/01 09:25:25;;;;;;;;;;;18.80;90.40;;;;;;4077279;28;19948;-41
2023/10/01 09:28:29;;;;;;;;;;;18.80;90.40;;;;;;4098513;28;20386;-40
2023/10/01 09:31:26;;;;;;;;;;;18.80;90.40;;;;;;4096444;28;19952;-40
2023/10/01 09:34:29;;;;;;;;;;;18.90;90.40;;;;;;4087992;28;19941;-41
2023/10/01 09:37:17;;;;;;;;;;;18.90;90.40;;;;;;4104361;28;19933;-40
2023/10/01 09:40:03;;;;;;;;;;;18.90;90.40;;;;;;4103882;28;19969;-40
2023/10/01 09:42:56;;;;;;;;;;;18.90;90.50;;;;;;4102280;28;20310;-41
2023/10/01 09:45:39;;;;;;;;;;;18.90;90.50;;;;;;4115079;28;19940;-41
2023/10/01 09:48:30;;;;;;;;;;;18.90;90.50;;;;;;4120259;28;19932;-41
2023/10/01 09:51:14;;;;;;;;;;;18.90;90.60;;;;;;4118656;28;19936;-42
2023/10/01 09:54:00;;;;;;;;;;;19.00;90.60;;;;;;4117838;28;20282;-41
2023/10/01 09:56:46;;;;;;;;;;;19.00;91.00;;;;;;4103283;28;20503;-41
2023/10/01 09:59:28;;;;;;;;;;;19.00;90.60;;;;;;4113479;28;19933;-41
2023/10/01 10:02:11;;;;;;;;;;;19.00;90.60;;;;;;4111874;28;20065;-41
2023/10/01 10:04:52;;;;;;;;;;;19.10;90.60;;;;;;4117315;28;19981;-41
2023/10/01 10:07:40;;;;;;;;;;;19.10;90.60;;;;;;4118449;28;19933;-40
2023/10/01 10:10:26;;;;;;;;;;;19.10;90.70;;;;;;4096728;28;19937;-55
2023/10/01 10:13:32;;;;;;;;;;;19.10;90.70;;;;;;4092035;28;19934;-54
2023/10/01 10:16:34;;;;;;;;;;;19.10;90.70;;;;;;4101965;28;19933;-55
2023/10/01 10:19:20;;;;;;;;;;;19.20;90.70;;;;;;4113115;28;20031;-51
2023/10/01 10:22:12;;;;;;;;;;;19.20;90.80;;;;;;4102422;28;19973;-52
2023/10/01 10:25:08;;;;;;;;;;;19.30;90.80;;;;;;4093590;28;19941;-43
2023/10/01 10:27:50;;;;;;;;;;;19.40;90.80;;;;;;4090341;28;20327;-55
2023/10/01 10:30:31;;;;;;;;;;;19.40;90.80;;;;;;4111398;28;19980;-52
2023/10/01 10:33:30;;;;;;;;;;;19.50;90.70;;;;;;4080333;28;19941;-50
2023/10/01 10:36:30;;;;;;;;;;;19.50;90.70;;;;;;4097858;28;20052;-53
2023/10/01 10:39:16;;;;;;;;;;;19.60;90.60;;;;;;4111579;28;20421;-48
2023/10/01 10:42:27;;;;;;;;;;;19.60;90.60;;;;;;4096139;28;20026;-51
2023/10/01 10:45:22;;;;;;;;;;;19.60;90.60;;;;;;4096652;28;19937;-41
2023/10/01 10:48:07;;;;;;;;;;;19.70;90.60;;;;;;4096326;28;19992;-41
2023/10/01 10:50:58;;;;;;;;;;;19.80;90.60;;;;;;4089420;28;19972;-40
2023/10/01 10:54:00;;;;;;;;;;;19.80;90.60;;;;;;4099142;28;20410;-41
2023/10/01 10:56:47;;;;;;;;;;;19.80;90.50;;;;;;4097652;28;19979;-40
2023/10/01 10:59:33;;;;;;;;;;;19.90;90.50;;;;;;4084340;28;19936;-41
2023/10/01 11:02:18;;;;;;;;;;;19.90;90.50;;;;;;4061359;28;20454;-40
2023/10/01 11:05:00;;;;;;;;;;;19.90;90.50;;;;;;4103807;28;20401;-55
2023/10/01 11:07:58;;;;;;;;;;;20.00;90.50;;;;;;4099217;28;19932;-52
2023/10/01 11:10:44;;;;;;;;;;;20.00;90.40;;;;;;4094971;28;19931;-52
2023/10/01 11:13:42;;;;;;;;;;;20.00;90.40;;;;;;4086199;28;19932;-54
2023/10/01 11:16:33;;;;;;;;;;;20.00;90.30;;;;;;4094480;28;19942;-47
2023/10/01 11:19:17;;;;;;;;;;;20.00;90.30;;;;;;4106877;28;19933;-50
2023/10/01 11:22:01;;;;;;;;;;;20.00;90.20;;;;;;4088619;28;19933;-52
2023/10/01 11:24:48;;;;;;;;;;;20.00;90.20;;;;;;4113295;28;20053;-52
2023/10/01 11:27:44;;;;;;;;;;;20.10;90.20;;;;;;4108694;28;19931;-50
2023/10/01 11:30:34;;;;;;;;;;;20.00;90.20;;;;;;4084204;28;19961;-55
2023/10/01 11:33:31;;;;;;;;;;;20.10;90.20;;;;;;4091695;28;19981;-52
2023/10/01 11:36:14;;;;;;;;;;;20.10;90.10;;;;;;4093098;28;19933;-52
2023/10/01 11:38:59;;;;;;;;;;;20.10;90.10;;;;;;4098564;28;19934;-52
2023/10/01 11:41:43;;;;;;;;;;;20.10;90.10;;;;;;4082938;28;19937;-49
2023/10/01 11:44:43;;;;;;;;;;;20.10;90.60;;;;;;4064519;29;20606;-54
2023/10/01 11:50:14;;;;;;;;;;;20.10;90.10;;;;;;4197627;27;20316;-49
2023/10/01 11:53:07;;;;;;;;;;;20.10;90.10;;;;;;4173110;28;20409;-45
2023/10/01 11:55:49;;;;;;;;;;;20.10;90.10;;;;;;4209408;28;19932;-55
2023/10/01 11:58:32;;;;;;;;;;;20.10;90.00;;;;;;4173575;28;20094;-55
2023/10/01 12:01:14;;;;;;;;;;;20.20;90.00;;;;;;4185172;28;19935;-55
2023/10/01 12:03:58;;;;;;;;;;;20.20;90.00;;;;;;4178662;28;20005;-53
2023/10/01 12:06:47;;;;;;;;;;;20.20;90.00;;;;;;4139455;28;19993;-54
2023/10/01 12:09:39;;;;;;;;;;;20.20;90.00;;;;;;4185569;28;20022;-55
2023/10/01 12:12:27;;;;;;;;;;;20.20;90.00;;;;;;4175764;28;20425;-55
2023/10/01 12:18:13;;;;;;;;;;;20.20;90.30;;;;;;4193694;28;20733;-51
2023/10/01 12:20:58;;;;;;;;;;;20.20;89.80;;;;;;4177033;28;20065;-52
2023/10/01 12:23:49;;;;;;;;;;;20.30;89.80;;;;;;4183790;28;19932;-53
2023/10/01 12:26:36;;;;;;;;;;;20.20;89.80;;;;;;4189366;28;19932;-52
2023/10/01 12:29:18;;;;;;;;;;;20.30;89.80;;;;;;4179544;28;20069;-50
2023/10/01 12:32:00;;;;;;;;;;;20.30;89.70;;;;;;4185181;28;19931;-53
2023/10/01 12:34:42;;;;;;;;;;;20.30;89.80;;;;;;4191615;28;19931;-54
2023/10/01 12:37:38;;;;;;;;;;;20.30;89.80;;;;;;4187880;28;20006;-40
2023/10/01 12:40:34;;;;;;;;;;;20.30;89.70;;;;;;4179450;28;19977;-40
2023/10/01 12:46:14;;;;;;;;;;;20.30;89.60;;;;;;4150703;28;20395;-41
2023/10/01 12:49:15;;;;;;;;;;;20.40;89.70;;;;;;4161396;28;19939;-40
2023/10/01 12:52:00;;;;;;;;;;;20.40;89.60;;;;;;4177559;28;19931;-40
2023/10/01 12:54:44;;;;;;;;;;;20.40;89.50;;;;;;4167838;28;20448;-50
2023/10/01 12:57:38;;;;;;;;;;;20.40;89.50;;;;;;4192966;28;20295;-51
2023/10/01 13:00:43;;;;;;;;;;;20.40;89.40;;;;;;4178888;28;19975;-53
2023/10/01 13:03:29;;;;;;;;;;;20.40;89.30;;;;;;4168793;28;20094;-45
2023/10/01 13:06:14;;;;;;;;;;;20.50;89.40;;;;;;4169733;28;19931;-53
2023/10/01 13:09:00;;;;;;;;;;;20.50;89.40;;;;;;4178620;28;20017;-53
2023/10/01 13:11:50;;;;;;;;;;;20.50;89.40;;;;;;4143845;28;20013;-50
2023/10/01 13:14:36;;;;;;;;;;;20.50;89.30;;;;;;4194444;28;21387;-52
2023/10/01 13:17:35;;;;;;;;;;;20.50;89.30;;;;;;4184505;28;20005;-50
2023/10/01 13:20:22;;;;;;;;;;;20.50;90.00;;;;;;4186027;28;20405;-51
2023/10/01 13:23:07;;;;;;;;;;;20.50;90.00;;;;;;4164731;28;19984;-41
2023/10/01 13:26:05;;;;;;;;;;;20.60;89.20;;;;;;4157526;28;19950;-40
2023/10/01 13:28:50;;;;;;;;;;;20.60;89.20;;;;;;4157357;28;19939;-40
2023/10/01 13:31:51;;;;;;;;;;;20.60;89.20;;;;;;4162412;28;19934;-41
2023/10/01 13:34:48;;;;;;;;;;;20.60;89.00;;;;;;4176680;28;19932;-42
2023/10/01 13:40:32;;;;;;;;;;;20.60;88.80;;;;;;4159022;28;20299;-41
2023/10/01 14:10:17;;;;;;;;;;;20.80;88.90;;;;;;4165571;28;20061;-51
2023/10/01 14:13:04;;;;;;;;;;;20.90;88.90;;;;;;4158985;28;20311;-53
2023/10/01 14:15:46;;;;;;;;;;;20.90;88.90;;;;;;4137581;28;20053;-55
2023/10/01 14:18:34;;;;;;;;;;;21.00;88.70;;;;;;4176049;28;19940;-57
2023/10/01 14:21:22;;;;;;;;;;;21.00;88.60;;;;;;4136108;28;19936;-56
2023/10/01 14:27:02;;;;;;;;;;;21.10;88.40;;;;;;4165998;28;20073;-55
2023/10/01 14:29:48;;;;;;;;;;;21.10;88.20;;;;;;4165809;28;20497;-55
2023/10/01 14:32:35;;;;;;;;;;;21.10;88.10;;;;;;4163097;28;19932;-54
2023/10/01 14:35:16;;;;;;;;;;;21.10;87.90;;;;;;4142968;28;19936;-41
2023/10/01 14:38:04;;;;;;;;;;;21.10;87.70;;;;;;4131146;28;19951;-41
2023/10/01 14:40:56;;;;;;;;;;;21.10;87.40;;;;;;4131041;28;20315;-42
2023/10/01 14:43:41;;;;;;;;;;;21.20;87.30;;;;;;4161253;28;19967;-41
2023/10/01 14:46:23;;;;;;;;;;;21.20;87.10;;;;;;4167846;28;19932;-57
2023/10/01 14:49:05;;;;;;;;;;;21.20;87.20;;;;;;4153848;28;20032;-53
2023/10/01 14:51:53;;;;;;;;;;;21.20;87.20;;;;;;4159830;28;19931;-54
2023/10/01 14:54:37;;;;;;;;;;;21.20;87.10;;;;;;4148596;28;19982;-54
2023/10/01 14:57:20;;;;;;;;;;;21.20;87.00;;;;;;4164721;28;19936;-55
2023/10/01 15:00:02;;;;;;;;;;;21.20;86.90;;;;;;4141207;28;19932;-56
2023/10/01 15:02:44;;;;;;;;;;;21.20;86.80;;;;;;4158678;28;19977;-53
2023/10/01 15:05:26;;;;;;;;;;;21.20;86.70;;;;;;4163065;28;19943;-56
2023/10/01 15:08:08;;;;;;;;;;;21.20;86.60;;;;;;4122178;28;20032;-41
2023/10/01 15:10:53;;;;;;;;;;;21.10;86.50;;;;;;4160349;28;20043;-41
2023/10/01 15:13:36;;;;;;;;;;;21.10;86.50;;;;;;4162146;28;19951;-41
2023/10/01 15:16:22;;;;;;;;;;;21.10;86.40;;;;;;4160683;28;20394;-41
2023/10/01 15:19:06;;;;;;;;;;;21.10;87.30;;;;;;4155587;28;19935;-42
2023/10/01 15:21:53;;;;;;;;;;;21.10;86.40;;;;;;4149637;28;19998;-41
2023/10/01 15:24:35;;;;;;;;;;;21.10;86.40;;;;;;4182630;28;20397;-41
2023/10/01 15:27:23;;;;;;;;;;;21.10;86.40;;;;;;4157760;28;19952;-41
2023/10/01 15:30:20;;;;;;;;;;;21.10;86.40;;;;;;4167381;28;20014;-40
2023/10/01 15:33:15;;;;;;;;;;;21.10;86.40;;;;;;4149612;28;19974;-41
2023/10/01 15:36:05;;;;;;;;;;;21.10;86.50;;;;;;4131469;28;19992;-41
2023/10/01 15:38:50;;;;;;;;;;;21.00;86.50;;;;;;4153939;28;19987;-42
2023/10/01 15:41:33;;;;;;;;;;;21.00;86.50;;;;;;4146222;28;20410;-42
2023/10/01 15:44:17;;;;;;;;;;;21.00;86.60;;;;;;4167803;28;19936;-42
2023/10/01 15:47:00;;;;;;;;;;;21.00;86.60;;;;;;4184481;28;19932;-41
2023/10/01 15:49:42;;;;;;;;;;;21.00;86.60;;;;;;4199522;28;19993;-54
2023/10/01 15:52:25;;;;;;;;;;;21.00;86.70;;;;;;4172625;28;20301;-53
2023/10/01 15:55:07;;;;;;;;;;;21.00;86.70;;;;;;4178750;28;19966;-55
2023/10/01 15:58:01;;;;;;;;;;;21.00;86.70;;;;;;4173890;28;19934;-42
2023/10/01 16:00:49;;;;;;;;;;;20.90;86.70;;;;;;4176217;28;19936;-55
2023/10/01 16:03:41;;;;;;;;;;;20.90;86.80;;;;;;4170638;28;19935;-53
2023/10/01 16:06:26;;;;;;;;;;;20.90;86.80;;;;;;4185708;28;19969;-55
2023/10/01 16:09:09;;;;;;;;;;;20.90;86.80;;;;;;4146606;28;19935;-56
2023/10/01 16:11:53;;;;;;;;;;;20.90;86.80;;;;;;4151664;28;19979;-56
2023/10/01 16:14:38;;;;;;;;;;;20.90;86.80;;;;;;4165389;28;19932;-54
2023/10/01 16:17:38;;;;;;;;;;;20.90;86.80;;;;;;4137252;28;20072;-55
2023/10/01 16:20:28;;;;;;;;;;;20.90;86.90;;;;;;4148496;28;20479;-54
2023/10/01 16:23:15;;;;;;;;;;;20.90;87.00;;;;;;4149518;28;19961;-54
2023/10/01 16:25:56;;;;;;;;;;;20.90;87.00;;;;;;4175761;28;19931;-52
2023/10/01 16:28:40;;;;;;;;;;;20.90;87.90;;;;;;4182667;28;19973;-53
2023/10/01 16:31:21;;;;;;;;;;;20.90;87.10;;;;;;4180707;28;19943;-53
2023/10/01 16:34:06;;;;;;;;;;;20.80;87.10;;;;;;4169465;28;19934;-53
2023/10/01 16:36:49;;;;;;;;;;;20.80;87.10;;;;;;4181196;28;20154;-55
2023/10/01 16:39:36;;;;;;;;;;;20.80;87.30;;;;;;4184739;28;19964;-53
2023/10/01 16:42:18;;;;;;;;;;;20.80;87.30;;;;;;4166848;28;19932;-55
2023/10/01 16:44:59;;;;;;;;;;;20.80;87.40;;;;;;4166753;28;19936;-55
2023/10/01 16:47:51;;;;;;;;;;;20.80;87.50;;;;;;4159604;28;19936;-54
2023/10/01 16:51:17;;;;;;;;;;;20.80;87.60;;;;;;4161538;28;19932;-54
2023/10/01 16:54:03;;;;;;;;;;;20.80;87.70;;;;;;4159075;28;19936;-52
2023/10/01 16:56:45;;;;;;;;;;;20.80;87.90;;;;;;4135330;28;20054;-55
2023/10/01 16:59:31;;;;;;;;;;;20.80;87.90;;;;;;4158187;28;19952;-56
2023/10/01 17:02:19;;;;;;;;;;;20.80;87.90;;;;;;4183432;28;19940;-56
2023/10/01 17:05:07;;;;;;;;;;;20.80;87.90;;;;;;4169714;28;19932;-58